Roi Et, Thailand
Current Conditions -  °F | °C
As of 7:00 AM on Friday 19 Dec 2014 (Local Time) from VTUK Reporting Station
Broken Clouds Broken Clouds  
Wind Chill: 63°   Ceiling: 10000
Heat Index: 63°   Visibility: 4mi
Dew Point: 52°   Wind: 6mph
Humidity: 68%   Direction: 350°N
Pressure: 30.09"   Gusts: NA
Location:  16.05°N, 103.65°E
Report Text: VTUK 190000Z 35005KT 330V030 7000 FEW040 BKN100 17/11 Q1019 A3011 RWY 03 INFO B
Loading
Personal Weather Stations






























Interactive Weather Map New forecast layout! Learn more

10-Day Weather Forecast

Advertisements
Track Severe Weather on mobile